sensor_id;sensor_type;location;lat;lon;timestamp;pressure;altitude;pressure_sealevel;temperature
70819;BMP280;58439;51.046;13.692;2022-10-30T00:01:50;100549.38;;;12.69
70819;BMP280;58439;51.046;13.692;2022-10-30T00:04:18;100551.75;;;12.64
70819;BMP280;58439;51.046;13.692;2022-10-30T00:06:45;100550.97;;;12.64
70819;BMP280;58439;51.046;13.692;2022-10-30T00:09:17;100548.94;;;12.59
70819;BMP280;58439;51.046;13.692;2022-10-30T00:11:44;100542.22;;;12.57
70819;BMP280;58439;51.046;13.692;2022-10-30T00:14:12;100543.03;;;12.51
70819;BMP280;58439;51.046;13.692;2022-10-30T00:16:49;100540.56;;;12.49
70819;BMP280;58439;51.046;13.692;2022-10-30T00:19:16;100534.28;;;12.43
70819;BMP280;58439;51.046;13.692;2022-10-30T00:21:43;100538.09;;;12.41
70819;BMP280;58439;51.046;13.692;2022-10-30T00:24:11;100545.16;;;12.40
70819;BMP280;58439;51.046;13.692;2022-10-30T00:26:38;100543.34;;;12.41
70819;BMP280;58439;51.046;13.692;2022-10-30T00:29:05;100530.47;;;12.46
70819;BMP280;58439;51.046;13.692;2022-10-30T00:31:32;100533.56;;;12.56
70819;BMP280;58439;51.046;13.692;2022-10-30T00:34:00;100526.72;;;12.62
70819;BMP280;58439;51.046;13.692;2022-10-30T00:36:27;100529.78;;;12.65
70819;BMP280;58439;51.046;13.692;2022-10-30T00:38:54;100523.75;;;12.71
70819;BMP280;58439;51.046;13.692;2022-10-30T00:41:23;100532.47;;;12.79
70819;BMP280;58439;51.046;13.692;2022-10-30T00:43:51;100535.13;;;12.85
70819;BMP280;58439;51.046;13.692;2022-10-30T00:46:33;100534.28;;;12.85
70819;BMP280;58439;51.046;13.692;2022-10-30T00:49:15;100531.91;;;12.90
70819;BMP280;58439;51.046;13.692;2022-10-30T00:51:51;100521.03;;;12.93
70819;BMP280;58439;51.046;13.692;2022-10-30T00:54:20;100524.63;;;12.92
70819;BMP280;58439;51.046;13.692;2022-10-30T00:56:51;100518.78;;;12.90
70819;BMP280;58439;51.046;13.692;2022-10-30T00:59:31;100519.97;;;12.87
70819;BMP280;58439;51.046;13.692;2022-10-30T01:02:02;100520.19;;;12.86
70819;BMP280;58439;51.046;13.692;2022-10-30T01:04:35;100513.69;;;12.82
70819;BMP280;58439;51.046;13.692;2022-10-30T01:07:11;100507.22;;;12.78
70819;BMP280;58439;51.046;13.692;2022-10-30T01:09:40;100503.34;;;12.73
70819;BMP280;58439;51.046;13.692;2022-10-30T01:12:08;100495.88;;;12.70
70819;BMP280;58439;51.046;13.692;2022-10-30T01:14:43;100498.09;;;12.73
70819;BMP280;58439;51.046;13.692;2022-10-30T01:23:45;100489.63;;;12.71
70819;BMP280;58439;51.046;13.692;2022-10-30T01:36:29;100485.88;;;12.53
70819;BMP280;58439;51.046;13.692;2022-10-30T01:39:11;100483.19;;;12.39
70819;BMP280;58439;51.046;13.692;2022-10-30T01:41:40;100486.56;;;12.33
70819;BMP280;58439;51.046;13.692;2022-10-30T01:44:29;100465.38;;;12.28
70819;BMP280;58439;51.046;13.692;2022-10-30T01:47:33;100470.47;;;12.36
70819;BMP280;58439;51.046;13.692;2022-10-30T01:50:35;100473.13;;;12.43
70819;BMP280;58439;51.046;13.692;2022-10-30T01:56:12;100480.81;;;12.44
70819;BMP280;58439;51.046;13.692;2022-10-30T02:01:51;100481.34;;;12.33
70819;BMP280;58439;51.046;13.692;2022-10-30T02:04:18;100477.06;;;12.26
70819;BMP280;58439;51.046;13.692;2022-10-30T02:06:46;100479.81;;;12.17
70819;BMP280;58439;51.046;13.692;2022-10-30T02:09:15;100489.88;;;12.07
70819;BMP280;58439;51.046;13.692;2022-10-30T02:11:48;100478.13;;;12.03
70819;BMP280;58439;51.046;13.692;2022-10-30T02:14:27;100483.38;;;12.03
70819;BMP280;58439;51.046;13.692;2022-10-30T02:16:59;100466.06;;;12.02
70819;BMP280;58439;51.046;13.692;2022-10-30T02:19:28;100470.06;;;12.05
70819;BMP280;58439;51.046;13.692;2022-10-30T02:21:56;100465.63;;;12.05
70819;BMP280;58439;51.046;13.692;2022-10-30T02:24:23;100467.44;;;12.05
70819;BMP280;58439;51.046;13.692;2022-10-30T02:26:50;100467.44;;;12.05
70819;BMP280;58439;51.046;13.692;2022-10-30T02:29:17;100474.13;;;12.07
70819;BMP280;58439;51.046;13.692;2022-10-30T02:31:47;100466.50;;;12.12
70819;BMP280;58439;51.046;13.692;2022-10-30T02:34:15;100467.16;;;12.21
70819;BMP280;58439;51.046;13.692;2022-10-30T02:36:42;100465.00;;;12.31
70819;BMP280;58439;51.046;13.692;2022-10-30T02:39:11;100461.03;;;12.42
70819;BMP280;58439;51.046;13.692;2022-10-30T02:41:38;100462.84;;;12.48
70819;BMP280;58439;51.046;13.692;2022-10-30T02:44:05;100456.84;;;12.54
70819;BMP280;58439;51.046;13.692;2022-10-30T02:46:34;100462.31;;;12.59
70819;BMP280;58439;51.046;13.692;2022-10-30T02:49:01;100456.47;;;12.64
70819;BMP280;58439;51.046;13.692;2022-10-30T02:51:30;100458.50;;;12.68
70819;BMP280;58439;51.046;13.692;2022-10-30T02:53:59;100450.25;;;12.71
70819;BMP280;58439;51.046;13.692;2022-10-30T02:56:27;100462.59;;;12.78
70819;BMP280;58439;51.046;13.692;2022-10-30T02:58:55;100451.66;;;12.81
70819;BMP280;58439;51.046;13.692;2022-10-30T03:01:22;100460.78;;;12.85
70819;BMP280;58439;51.046;13.692;2022-10-30T03:03:53;100468.25;;;12.88
70819;BMP280;58439;51.046;13.692;2022-10-30T03:06:22;100458.19;;;12.91
70819;BMP280;58439;51.046;13.692;2022-10-30T03:08:49;100458.81;;;12.93
70819;BMP280;58439;51.046;13.692;2022-10-30T03:11:19;100456.78;;;12.95
70819;BMP280;58439;51.046;13.692;2022-10-30T03:14:28;100449.53;;;12.97
70819;BMP280;58439;51.046;13.692;2022-10-30T03:17:07;100454.34;;;13.00
70819;BMP280;58439;51.046;13.692;2022-10-30T03:19:36;100452.56;;;13.01
70819;BMP280;58439;51.046;13.692;2022-10-30T03:22:03;100451.53;;;13.02
70819;BMP280;58439;51.046;13.692;2022-10-30T03:24:30;100465.28;;;12.97
70819;BMP280;58439;51.046;13.692;2022-10-30T03:26:57;100466.06;;;12.91
70819;BMP280;58439;51.046;13.692;2022-10-30T03:29:25;100462.44;;;12.86
70819;BMP280;58439;51.046;13.692;2022-10-30T03:31:52;100458.38;;;12.90
70819;BMP280;58439;51.046;13.692;2022-10-30T03:34:20;100462.81;;;12.96
70819;BMP280;58439;51.046;13.692;2022-10-30T03:36:47;100461.84;;;13.03
70819;BMP280;58439;51.046;13.692;2022-10-30T03:39:15;100466.47;;;13.08
70819;BMP280;58439;51.046;13.692;2022-10-30T03:41:43;100464.50;;;13.10
70819;BMP280;58439;51.046;13.692;2022-10-30T03:44:12;100466.31;;;13.10
70819;BMP280;58439;51.046;13.692;2022-10-30T03:46:39;100469.53;;;13.12
70819;BMP280;58439;51.046;13.692;2022-10-30T03:49:32;100457.22;;;13.12
70819;BMP280;58439;51.046;13.692;2022-10-30T03:52:03;100459.03;;;13.12
70819;BMP280;58439;51.046;13.692;2022-10-30T03:54:30;100466.09;;;13.11
70819;BMP280;58439;51.046;13.692;2022-10-30T03:56:58;100462.88;;;13.09
70819;BMP280;58439;51.046;13.692;2022-10-30T03:59:27;100463.28;;;13.06
70819;BMP280;58439;51.046;13.692;2022-10-30T04:02:13;100454.78;;;13.04
70819;BMP280;58439;51.046;13.692;2022-10-30T04:04:41;100464.47;;;13.03
70819;BMP280;58439;51.046;13.692;2022-10-30T04:07:08;100456.78;;;13.02
70819;BMP280;58439;51.046;13.692;2022-10-30T04:09:35;100465.06;;;12.99
70819;BMP280;58439;51.046;13.692;2022-10-30T04:12:04;100459.22;;;12.97
70819;BMP280;58439;51.046;13.692;2022-10-30T04:14:31;100449.69;;;12.96
70819;BMP280;58439;51.046;13.692;2022-10-30T04:26:36;100433.34;;;13.00
70819;BMP280;58439;51.046;13.692;2022-10-30T04:29:03;100431.13;;;12.97
70819;BMP280;58439;51.046;13.692;2022-10-30T04:31:31;100431.31;;;12.96
70819;BMP280;58439;51.046;13.692;2022-10-30T04:33:58;100417.56;;;12.87
70819;BMP280;58439;51.046;13.692;2022-10-30T04:36:25;100425.66;;;12.79
70819;BMP280;58439;51.046;13.692;2022-10-30T04:39:00;100430.44;;;12.69
70819;BMP280;58439;51.046;13.692;2022-10-30T04:41:30;100433.06;;;12.62
70819;BMP280;58439;51.046;13.692;2022-10-30T04:44:02;100428.97;;;12.60
70819;BMP280;58439;51.046;13.692;2022-10-30T04:46:31;100427.72;;;12.49
70819;BMP280;58439;51.046;13.692;2022-10-30T04:49:06;100429.91;;;12.39
70819;BMP280;58439;51.046;13.692;2022-10-30T04:51:34;100424.63;;;12.32
70819;BMP280;58439;51.046;13.692;2022-10-30T04:54:03;100425.63;;;12.25
70819;BMP280;58439;51.046;13.692;2022-10-30T04:56:30;100413.88;;;12.21
70819;BMP280;58439;51.046;13.692;2022-10-30T04:58:59;100414.25;;;12.17
70819;BMP280;58439;51.046;13.692;2022-10-30T05:01:27;100425.38;;;12.20
70819;BMP280;58439;51.046;13.692;2022-10-30T05:03:56;100416.72;;;12.19
70819;BMP280;58439;51.046;13.692;2022-10-30T05:06:29;100417.91;;;12.16
70819;BMP280;58439;51.046;13.692;2022-10-30T05:08:57;100424.75;;;12.17
70819;BMP280;58439;51.046;13.692;2022-10-30T05:11:36;100415.09;;;12.18
70819;BMP280;58439;51.046;13.692;2022-10-30T05:14:03;100417.16;;;12.23
70819;BMP280;58439;51.046;13.692;2022-10-30T05:16:31;100419.78;;;12.23
70819;BMP280;58439;51.046;13.692;2022-10-30T05:19:00;100410.88;;;12.24
70819;BMP280;58439;51.046;13.692;2022-10-30T05:21:39;100417.34;;;12.28
70819;BMP280;58439;51.046;13.692;2022-10-30T05:24:14;100410.94;;;12.30
70819;BMP280;58439;51.046;13.692;2022-10-30T05:26:43;100412.91;;;12.28
70819;BMP280;58439;51.046;13.692;2022-10-30T05:29:12;100409.88;;;12.25
70819;BMP280;58439;51.046;13.692;2022-10-30T05:31:43;100415.91;;;12.19
70819;BMP280;58439;51.046;13.692;2022-10-30T05:34:13;100427.38;;;12.17
70819;BMP280;58439;51.046;13.692;2022-10-30T05:36:42;100422.13;;;12.17
70819;BMP280;58439;51.046;13.692;2022-10-30T05:39:14;100414.09;;;12.19
70819;BMP280;58439;51.046;13.692;2022-10-30T05:41:45;100414.13;;;12.26
70819;BMP280;58439;51.046;13.692;2022-10-30T05:44:13;100425.28;;;12.34
70819;BMP280;58439;51.046;13.692;2022-10-30T05:46:45;100422.84;;;12.39
70819;BMP280;58439;51.046;13.692;2022-10-30T05:49:27;100428.34;;;12.44
70819;BMP280;58439;51.046;13.692;2022-10-30T05:51:57;100423.50;;;12.48
70819;BMP280;58439;51.046;13.692;2022-10-30T05:54:24;100417.25;;;12.49
70819;BMP280;58439;51.046;13.692;2022-10-30T05:57:30;100417.47;;;12.54
70819;BMP280;58439;51.046;13.692;2022-10-30T05:59:59;100422.53;;;12.56
70819;BMP280;58439;51.046;13.692;2022-10-30T06:02:32;100417.91;;;12.58
70819;BMP280;58439;51.046;13.692;2022-10-30T06:05:17;100422.97;;;12.59
70819;BMP280;58439;51.046;13.692;2022-10-30T06:07:44;100420.94;;;12.61
70819;BMP280;58439;51.046;13.692;2022-10-30T06:10:13;100431.22;;;12.63
70819;BMP280;58439;51.046;13.692;2022-10-30T06:13:00;100427.19;;;12.67
70819;BMP280;58439;51.046;13.692;2022-10-30T06:15:41;100419.94;;;12.69
70819;BMP280;58439;51.046;13.692;2022-10-30T06:18:08;100416.31;;;12.70
70819;BMP280;58439;51.046;13.692;2022-10-30T06:20:40;100418.56;;;12.73
70819;BMP280;58439;51.046;13.692;2022-10-30T06:23:26;100421.97;;;12.73
70819;BMP280;58439;51.046;13.692;2022-10-30T06:25:59;100423.81;;;12.73
70819;BMP280;58439;51.046;13.692;2022-10-30T06:28:34;100425.22;;;12.76
70819;BMP280;58439;51.046;13.692;2022-10-30T06:31:02;100429.28;;;12.78
70819;BMP280;58439;51.046;13.692;2022-10-30T06:33:30;100430.28;;;12.84
70819;BMP280;58439;51.046;13.692;2022-10-30T06:35:59;100433.34;;;12.94
70819;BMP280;58439;51.046;13.692;2022-10-30T06:38:27;100445.47;;;13.01
70819;BMP280;58439;51.046;13.692;2022-10-30T06:40:55;100445.31;;;13.10
70819;BMP280;58439;51.046;13.692;2022-10-30T06:43:50;100446.13;;;13.17
70819;BMP280;58439;51.046;13.692;2022-10-30T06:46:22;100451.00;;;13.26
70819;BMP280;58439;51.046;13.692;2022-10-30T06:48:56;100448.38;;;13.33
70819;BMP280;58439;51.046;13.692;2022-10-30T06:51:25;100449.38;;;13.39
70819;BMP280;58439;51.046;13.692;2022-10-30T06:53:53;100455.66;;;13.44
70819;BMP280;58439;51.046;13.692;2022-10-30T06:56:48;100458.91;;;13.53
70819;BMP280;58439;51.046;13.692;2022-10-30T06:59:35;100455.25;;;13.60
70819;BMP280;58439;51.046;13.692;2022-10-30T07:02:14;100461.28;;;13.68
70819;BMP280;58439;51.046;13.692;2022-10-30T07:04:53;100455.63;;;13.71
70819;BMP280;58439;51.046;13.692;2022-10-30T07:07:20;100458.06;;;13.72
70819;BMP280;58439;51.046;13.692;2022-10-30T07:09:47;100454.22;;;13.75
70819;BMP280;58439;51.046;13.692;2022-10-30T07:12:18;100458.47;;;13.76
70819;BMP280;58439;51.046;13.692;2022-10-30T07:15:06;100458.47;;;13.76
70819;BMP280;58439;51.046;13.692;2022-10-30T07:17:39;100460.09;;;13.77
70819;BMP280;58439;51.046;13.692;2022-10-30T07:20:14;100463.91;;;13.74
70819;BMP280;58439;51.046;13.692;2022-10-30T07:22:41;100459.69;;;13.73
70819;BMP280;58439;51.046;13.692;2022-10-30T07:25:08;100463.75;;;13.76
70819;BMP280;58439;51.046;13.692;2022-10-30T07:28:00;100463.72;;;13.82
70819;BMP280;58439;51.046;13.692;2022-10-30T07:30:35;100462.06;;;13.95
70819;BMP280;58439;51.046;13.692;2022-10-30T07:33:13;100458.63;;;14.01
70819;BMP280;58439;51.046;13.692;2022-10-30T07:36:07;100448.06;;;14.14
70819;BMP280;58439;51.046;13.692;2022-10-30T07:38:50;100455.31;;;14.32
70819;BMP280;58439;51.046;13.692;2022-10-30T07:41:31;100454.03;;;14.47
70819;BMP280;58439;51.046;13.692;2022-10-30T07:44:17;100460.19;;;14.73
70819;BMP280;58439;51.046;13.692;2022-10-30T07:47:09;100463.13;;;14.90
70819;BMP280;58439;51.046;13.692;2022-10-30T07:49:59;100454.53;;;15.01
70819;BMP280;58439;51.046;13.692;2022-10-30T07:52:32;100467.06;;;15.05
70819;BMP280;58439;51.046;13.692;2022-10-30T07:55:00;100469.50;;;15.07
70819;BMP280;58439;51.046;13.692;2022-10-30T07:57:47;100477.19;;;15.09
70819;BMP280;58439;51.046;13.692;2022-10-30T08:00:33;100467.28;;;15.11
70819;BMP280;58439;51.046;13.692;2022-10-30T08:03:24;100461.09;;;15.17
70819;BMP280;58439;51.046;13.692;2022-10-30T08:06:01;100464.56;;;15.17
70819;BMP280;58439;51.046;13.692;2022-10-30T08:08:33;100456.91;;;15.16
70819;BMP280;58439;51.046;13.692;2022-10-30T08:11:15;100454.66;;;15.13
70819;BMP280;58439;51.046;13.692;2022-10-30T08:13:43;100461.09;;;15.17
70819;BMP280;58439;51.046;13.692;2022-10-30T08:16:10;100460.22;;;15.29
70819;BMP280;58439;51.046;13.692;2022-10-30T08:18:38;100461.78;;;15.37
70819;BMP280;58439;51.046;13.692;2022-10-30T08:21:09;100465.28;;;15.31
70819;BMP280;58439;51.046;13.692;2022-10-30T08:23:44;100460.69;;;15.26
70819;BMP280;58439;51.046;13.692;2022-10-30T08:26:14;100461.31;;;15.22
70819;BMP280;58439;51.046;13.692;2022-10-30T08:28:41;100458.84;;;15.27
70819;BMP280;58439;51.046;13.692;2022-10-30T08:31:10;100460.59;;;15.33
70819;BMP280;58439;51.046;13.692;2022-10-30T08:33:56;100455.81;;;15.48
70819;BMP280;58439;51.046;13.692;2022-10-30T08:36:44;100454.81;;;15.68
70819;BMP280;58439;51.046;13.692;2022-10-30T08:39:16;100463.22;;;15.83
70819;BMP280;58439;51.046;13.692;2022-10-30T08:41:50;100455.88;;;16.03
70819;BMP280;58439;51.046;13.692;2022-10-30T08:44:21;100450.34;;;16.23
70819;BMP280;58439;51.046;13.692;2022-10-30T08:47:20;100445.75;;;16.37
70819;BMP280;58439;51.046;13.692;2022-10-30T08:49:47;100448.94;;;16.39
70819;BMP280;58439;51.046;13.692;2022-10-30T08:52:18;100448.50;;;16.42
70819;BMP280;58439;51.046;13.692;2022-10-30T08:54:51;100452.28;;;16.64
70819;BMP280;58439;51.046;13.692;2022-10-30T08:57:18;100446.00;;;16.77
70819;BMP280;58439;51.046;13.692;2022-10-30T08:59:45;100447.63;;;16.90
70819;BMP280;58439;51.046;13.692;2022-10-30T09:02:34;100437.00;;;17.08
70819;BMP280;58439;51.046;13.692;2022-10-30T09:05:32;100440.69;;;17.30
70819;BMP280;58439;51.046;13.692;2022-10-30T09:08:19;100443.44;;;17.59
70819;BMP280;58439;51.046;13.692;2022-10-30T09:11:00;100445.00;;;17.95
70819;BMP280;58439;51.046;13.692;2022-10-30T09:13:27;100439.03;;;18.16
70819;BMP280;58439;51.046;13.692;2022-10-30T09:16:01;100442.88;;;18.08
70819;BMP280;58439;51.046;13.692;2022-10-30T09:18:31;100452.56;;;18.03
70819;BMP280;58439;51.046;13.692;2022-10-30T09:20:59;100446.66;;;18.13
70819;BMP280;58439;51.046;13.692;2022-10-30T09:23:35;100434.75;;;18.27
70819;BMP280;58439;51.046;13.692;2022-10-30T09:26:25;100445.72;;;18.47
70819;BMP280;58439;51.046;13.692;2022-10-30T09:29:01;100442.19;;;18.42
70819;BMP280;58439;51.046;13.692;2022-10-30T09:31:47;100442.22;;;18.30
70819;BMP280;58439;51.046;13.692;2022-10-30T09:34:18;100448.91;;;18.21
70819;BMP280;58439;51.046;13.692;2022-10-30T09:36:52;100448.91;;;18.21
70819;BMP280;58439;51.046;13.692;2022-10-30T09:39:19;100452.59;;;18.20
70819;BMP280;58439;51.046;13.692;2022-10-30T09:48:36;100450.41;;;18.74
70819;BMP280;58439;51.046;13.692;2022-10-30T09:51:52;100457.31;;;19.25
70819;BMP280;58439;51.046;13.692;2022-10-30T09:57:33;100462.56;;;19.42
70819;BMP280;58439;51.046;13.692;2022-10-30T10:00:23;100457.00;;;19.82
70819;BMP280;58439;51.046;13.692;2022-10-30T10:03:12;100459.34;;;20.27
70819;BMP280;58439;51.046;13.692;2022-10-30T10:06:03;100460.47;;;22.56
70819;BMP280;58439;51.046;13.692;2022-10-30T10:09:18;100459.00;;;27.76
70819;BMP280;58439;51.046;13.692;2022-10-30T10:12:34;100460.81;;;30.32
70819;BMP280;58439;51.046;13.692;2022-10-30T10:15:44;100460.38;;;31.22
70819;BMP280;58439;51.046;13.692;2022-10-30T10:18:25;100458.81;;;32.35
70819;BMP280;58439;51.046;13.692;2022-10-30T10:21:01;100466.97;;;32.88
70819;BMP280;58439;51.046;13.692;2022-10-30T10:23:43;100462.16;;;32.57
70819;BMP280;58439;51.046;13.692;2022-10-30T10:26:47;100462.41;;;34.10
70819;BMP280;58439;51.046;13.692;2022-10-30T10:29:27;100463.50;;;34.60
70819;BMP280;58439;51.046;13.692;2022-10-30T10:34:48;100455.06;;;34.65
70819;BMP280;58439;51.046;13.692;2022-10-30T10:37:30;100464.19;;;31.87
70819;BMP280;58439;51.046;13.692;2022-10-30T10:40:46;100461.31;;;28.93
70819;BMP280;58439;51.046;13.692;2022-10-30T10:43:57;100451.84;;;27.72
70819;BMP280;58439;51.046;13.692;2022-10-30T10:46:57;100453.19;;;30.84
70819;BMP280;58439;51.046;13.692;2022-10-30T10:49:53;100453.97;;;29.88
70819;BMP280;58439;51.046;13.692;2022-10-30T10:52:39;100451.06;;;27.71
70819;BMP280;58439;51.046;13.692;2022-10-30T10:55:28;100440.56;;;25.97
70819;BMP280;58439;51.046;13.692;2022-10-30T10:58:22;100442.47;;;25.96
70819;BMP280;58439;51.046;13.692;2022-10-30T11:00:53;100445.28;;;30.21
70819;BMP280;58439;51.046;13.692;2022-10-30T11:03:51;100443.09;;;31.92
70819;BMP280;58439;51.046;13.692;2022-10-30T11:06:27;100443.22;;;31.39
70819;BMP280;58439;51.046;13.692;2022-10-30T11:09:28;100454.06;;;30.47
70819;BMP280;58439;51.046;13.692;2022-10-30T11:11:56;100442.16;;;29.46
70819;BMP280;58439;51.046;13.692;2022-10-30T11:14:27;100444.16;;;31.01
70819;BMP280;58439;51.046;13.692;2022-10-30T11:17:01;100436.75;;;34.08
70819;BMP280;58439;51.046;13.692;2022-10-30T11:19:31;100436.50;;;33.81
70819;BMP280;58439;51.046;13.692;2022-10-30T11:22:00;100433.31;;;34.11
70819;BMP280;58439;51.046;13.692;2022-10-30T11:24:33;100428.13;;;35.89
70819;BMP280;58439;51.046;13.692;2022-10-30T11:30:04;100432.97;;;37.44
70819;BMP280;58439;51.046;13.692;2022-10-30T11:32:33;100430.47;;;37.79
70819;BMP280;58439;51.046;13.692;2022-10-30T11:37:37;100426.75;;;37.47
70819;BMP280;58439;51.046;13.692;2022-10-30T11:40:15;100424.06;;;37.54
70819;BMP280;58439;51.046;13.692;2022-10-30T11:43:03;100419.34;;;38.23
70819;BMP280;58439;51.046;13.692;2022-10-30T11:45:39;100424.13;;;38.58
70819;BMP280;58439;51.046;13.692;2022-10-30T11:48:32;100419.16;;;38.96
70819;BMP280;58439;51.046;13.692;2022-10-30T11:51:03;100420.28;;;38.73
70819;BMP280;58439;51.046;13.692;2022-10-30T11:53:35;100425.75;;;39.16
70819;BMP280;58439;51.046;13.692;2022-10-30T11:56:21;100416.34;;;38.67
70819;BMP280;58439;51.046;13.692;2022-10-30T11:58:53;100415.88;;;38.30
70819;BMP280;58439;51.046;13.692;2022-10-30T12:01:28;100416.59;;;38.13
70819;BMP280;58439;51.046;13.692;2022-10-30T12:04:12;100413.19;;;38.44
70819;BMP280;58439;51.046;13.692;2022-10-30T12:06:42;100411.13;;;38.16
70819;BMP280;58439;51.046;13.692;2022-10-30T12:09:13;100410.16;;;37.80
70819;BMP280;58439;51.046;13.692;2022-10-30T12:11:42;100409.81;;;37.24
70819;BMP280;58439;51.046;13.692;2022-10-30T12:14:25;100407.41;;;37.18
70819;BMP280;58439;51.046;13.692;2022-10-30T12:16:57;100404.47;;;37.45
70819;BMP280;58439;51.046;13.692;2022-10-30T12:19:25;100403.13;;;37.76
70819;BMP280;58439;51.046;13.692;2022-10-30T12:21:54;100407.28;;;38.28
70819;BMP280;58439;51.046;13.692;2022-10-30T12:24:36;100410.88;;;37.70
70819;BMP280;58439;51.046;13.692;2022-10-30T12:27:12;100409.88;;;37.31
70819;BMP280;58439;51.046;13.692;2022-10-30T12:32:56;100404.94;;;36.32
70819;BMP280;58439;51.046;13.692;2022-10-30T12:35:44;100395.38;;;36.12
70819;BMP280;58439;51.046;13.692;2022-10-30T12:38:42;100397.94;;;36.31
70819;BMP280;58439;51.046;13.692;2022-10-30T12:41:39;100396.25;;;36.20
70819;BMP280;58439;51.046;13.692;2022-10-30T12:44:51;100394.69;;;36.52
70819;BMP280;58439;51.046;13.692;2022-10-30T12:51:22;100395.06;;;36.54
70819;BMP280;58439;51.046;13.692;2022-10-30T12:57:30;100384.25;;;37.02
70819;BMP280;58439;51.046;13.692;2022-10-30T13:00:16;100380.50;;;36.76
70819;BMP280;58439;51.046;13.692;2022-10-30T13:03:34;100385.91;;;36.73
70819;BMP280;58439;51.046;13.692;2022-10-30T13:06:13;100380.72;;;36.98
70819;BMP280;58439;51.046;13.692;2022-10-30T13:09:08;100382.97;;;36.52
70819;BMP280;58439;51.046;13.692;2022-10-30T13:12:04;100380.63;;;36.87
70819;BMP280;58439;51.046;13.692;2022-10-30T13:14:50;100378.91;;;37.16
70819;BMP280;58439;51.046;13.692;2022-10-30T13:17:19;100374.63;;;37.15
70819;BMP280;58439;51.046;13.692;2022-10-30T13:19:47;100379.47;;;36.88
70819;BMP280;58439;51.046;13.692;2022-10-30T13:22:48;100379.19;;;36.30
70819;BMP280;58439;51.046;13.692;2022-10-30T13:25:39;100375.94;;;36.47
70819;BMP280;58439;51.046;13.692;2022-10-30T13:28:32;100367.16;;;36.27
70819;BMP280;58439;51.046;13.692;2022-10-30T13:31:37;100369.00;;;36.23
70819;BMP280;58439;51.046;13.692;2022-10-30T13:37:00;100368.03;;;35.52
70819;BMP280;58439;51.046;13.692;2022-10-30T13:39:45;100367.56;;;35.47
70819;BMP280;58439;51.046;13.692;2022-10-30T13:42:35;100363.88;;;34.48
70819;BMP280;58439;51.046;13.692;2022-10-30T13:45:20;100359.19;;;33.60
70819;BMP280;58439;51.046;13.692;2022-10-30T13:51:39;100362.41;;;33.18
70819;BMP280;58439;51.046;13.692;2022-10-30T13:54:18;100353.06;;;33.63
70819;BMP280;58439;51.046;13.692;2022-10-30T13:56:47;100360.91;;;33.83
70819;BMP280;58439;51.046;13.692;2022-10-30T14:00:05;100357.00;;;34.16
70819;BMP280;58439;51.046;13.692;2022-10-30T14:06:00;100358.94;;;33.17
70819;BMP280;58439;51.046;13.692;2022-10-30T14:15:44;100364.34;;;27.96
70819;BMP280;58439;51.046;13.692;2022-10-30T14:20:56;100362.13;;;25.21
70819;BMP280;58439;51.046;13.692;2022-10-30T14:23:36;100369.81;;;24.61
70819;BMP280;58439;51.046;13.692;2022-10-30T14:28:44;100366.94;;;23.61
70819;BMP280;58439;51.046;13.692;2022-10-30T14:31:15;100367.94;;;23.31
70819;BMP280;58439;51.046;13.692;2022-10-30T14:33:54;100361.88;;;23.10
70819;BMP280;58439;51.046;13.692;2022-10-30T14:44:42;100370.09;;;22.13
70819;BMP280;58439;51.046;13.692;2022-10-30T14:48:00;100376.69;;;21.70
70819;BMP280;58439;51.046;13.692;2022-10-30T14:51:02;100371.53;;;21.43
70819;BMP280;58439;51.046;13.692;2022-10-30T14:57:44;100370.53;;;20.92
70819;BMP280;58439;51.046;13.692;2022-10-30T15:03:14;100368.22;;;20.64
70819;BMP280;58439;51.046;13.692;2022-10-30T15:06:03;100374.97;;;20.44
70819;BMP280;58439;51.046;13.692;2022-10-30T15:09:12;100380.69;;;20.26
70819;BMP280;58439;51.046;13.692;2022-10-30T15:14:15;100377.13;;;19.88
70819;BMP280;58439;51.046;13.692;2022-10-30T15:16:58;100387.75;;;19.67
70819;BMP280;58439;51.046;13.692;2022-10-30T15:19:28;100384.38;;;19.49
70819;BMP280;58439;51.046;13.692;2022-10-30T15:21:57;100379.16;;;19.33
70819;BMP280;58439;51.046;13.692;2022-10-30T15:27:20;100384.28;;;19.00
70819;BMP280;58439;51.046;13.692;2022-10-30T15:29:58;100391.50;;;18.88
70819;BMP280;58439;51.046;13.692;2022-10-30T15:32:27;100377.22;;;18.73
70819;BMP280;58439;51.046;13.692;2022-10-30T15:35:12;100386.63;;;18.63
70819;BMP280;58439;51.046;13.692;2022-10-30T15:38:04;100385.34;;;18.49
70819;BMP280;58439;51.046;13.692;2022-10-30T15:40:36;100392.28;;;18.38
70819;BMP280;58439;51.046;13.692;2022-10-30T15:43:10;100397.06;;;18.25
70819;BMP280;58439;51.046;13.692;2022-10-30T15:45:45;100390.31;;;18.17
70819;BMP280;58439;51.046;13.692;2022-10-30T15:48:25;100394.34;;;18.20
70819;BMP280;58439;51.046;13.692;2022-10-30T15:51:05;100388.94;;;18.15
70819;BMP280;58439;51.046;13.692;2022-10-30T15:53:47;100390.88;;;18.02
70819;BMP280;58439;51.046;13.692;2022-10-30T15:59:04;100393.00;;;17.77
70819;BMP280;58439;51.046;13.692;2022-10-30T16:01:42;100389.69;;;17.70
70819;BMP280;58439;51.046;13.692;2022-10-30T16:04:22;100391.66;;;17.63
70819;BMP280;58439;51.046;13.692;2022-10-30T16:09:18;100391.47;;;17.29
70819;BMP280;58439;51.046;13.692;2022-10-30T16:11:48;100402.72;;;17.13
70819;BMP280;58439;51.046;13.692;2022-10-30T16:14:22;100400.44;;;17.05
70819;BMP280;58439;51.046;13.692;2022-10-30T16:16:52;100398.59;;;16.94
70819;BMP280;58439;51.046;13.692;2022-10-30T16:19:30;100397.09;;;16.98
70819;BMP280;58439;51.046;13.692;2022-10-30T16:21:58;100399.03;;;17.02
70819;BMP280;58439;51.046;13.692;2022-10-30T16:24:31;100396.19;;;17.04
70819;BMP280;58439;51.046;13.692;2022-10-30T16:27:15;100398.22;;;17.02